Wasta, South Dakota
Current Conditions -  °F | °C
As of 1:52 PM on Wednesday 26 Nov 2014 (Local Time) from KRAP Reporting Station
Overcast Overcast  
Wind Chill: 31°   Ceiling: 1900
Heat Index: 31°   Visibility: 10mi
Dew Point: 23°   Wind: 3mph
Humidity: 72%   Direction: 180°S
Pressure: 30.23"   Gusts: NA
Location:  44.07°N, 102.45°W
Report Text: KRAP 262052Z 18003KT 10SM OVC019 M01/M05 A3023 RMK AO2 SLP274 T10061050 55002
Loading
Personal Weather Stations






























Interactive Weather Map New forecast layout! Learn more

10-Day Weather Forecast

Advertisements
Track Severe Weather on mobile